sensor_id;sensor_type;location;lat;lon;timestamp;P1;durP1;ratioP1;P2;durP2;ratioP2
53309;SDS011;39197;53.200;5.792;2022-12-24T00:01:22;36.35;;;25.52;;
53309;SDS011;39197;53.200;5.792;2022-12-24T00:03:47;34.28;;;22.85;;
53309;SDS011;39197;53.200;5.792;2022-12-24T00:06:17;34.45;;;23.52;;
53309;SDS011;39197;53.200;5.792;2022-12-24T00:08:46;31.23;;;20.02;;
53309;SDS011;39197;53.200;5.792;2022-12-24T00:11:11;32.30;;;21.40;;
53309;SDS011;39197;53.200;5.792;2022-12-24T00:13:37;32.33;;;20.60;;
53309;SDS011;39197;53.200;5.792;2022-12-24T00:16:03;31.70;;;19.95;;
53309;SDS011;39197;53.200;5.792;2022-12-24T00:18:29;30.35;;;19.60;;
53309;SDS011;39197;53.200;5.792;2022-12-24T00:20:55;29.30;;;19.83;;
53309;SDS011;39197;53.200;5.792;2022-12-24T00:23:21;28.40;;;20.40;;
53309;SDS011;39197;53.200;5.792;2022-12-24T00:25:46;30.13;;;19.98;;
53309;SDS011;39197;53.200;5.792;2022-12-24T00:28:13;31.92;;;20.65;;
53309;SDS011;39197;53.200;5.792;2022-12-24T00:30:40;34.15;;;21.75;;
53309;SDS011;39197;53.200;5.792;2022-12-24T00:33:06;34.13;;;20.35;;
53309;SDS011;39197;53.200;5.792;2022-12-24T00:35:32;30.17;;;19.75;;
53309;SDS011;39197;53.200;5.792;2022-12-24T00:37:59;32.05;;;21.15;;
53309;SDS011;39197;53.200;5.792;2022-12-24T00:40:24;36.50;;;23.20;;
53309;SDS011;39197;53.200;5.792;2022-12-24T00:42:50;31.60;;;20.60;;
53309;SDS011;39197;53.200;5.792;2022-12-24T00:45:18;36.97;;;22.90;;
53309;SDS011;39197;53.200;5.792;2022-12-24T00:47:44;33.45;;;22.08;;
53309;SDS011;39197;53.200;5.792;2022-12-24T00:50:09;31.67;;;21.55;;
53309;SDS011;39197;53.200;5.792;2022-12-24T00:52:35;32.67;;;22.13;;
53309;SDS011;39197;53.200;5.792;2022-12-24T00:55:00;37.03;;;22.92;;
53309;SDS011;39197;53.200;5.792;2022-12-24T00:57:26;36.78;;;24.27;;
53309;SDS011;39197;53.200;5.792;2022-12-24T00:59:52;33.08;;;21.40;;
53309;SDS011;39197;53.200;5.792;2022-12-24T01:02:18;34.95;;;21.38;;
53309;SDS011;39197;53.200;5.792;2022-12-24T01:04:43;36.78;;;22.42;;
53309;SDS011;39197;53.200;5.792;2022-12-24T01:07:28;41.60;;;23.42;;
53309;SDS011;39197;53.200;5.792;2022-12-24T01:09:53;37.83;;;22.50;;
53309;SDS011;39197;53.200;5.792;2022-12-24T01:12:19;36.88;;;22.40;;
53309;SDS011;39197;53.200;5.792;2022-12-24T01:14:45;43.13;;;24.85;;
53309;SDS011;39197;53.200;5.792;2022-12-24T01:17:10;42.78;;;23.75;;
53309;SDS011;39197;53.200;5.792;2022-12-24T01:19:36;47.97;;;24.08;;
53309;SDS011;39197;53.200;5.792;2022-12-24T01:22:01;43.13;;;24.95;;
53309;SDS011;39197;53.200;5.792;2022-12-24T01:24:27;46.78;;;25.95;;
53309;SDS011;39197;53.200;5.792;2022-12-24T01:26:53;43.63;;;25.27;;
53309;SDS011;39197;53.200;5.792;2022-12-24T01:29:19;51.75;;;26.42;;
53309;SDS011;39197;53.200;5.792;2022-12-24T01:31:44;44.92;;;25.45;;
53309;SDS011;39197;53.200;5.792;2022-12-24T01:34:10;42.38;;;24.85;;
53309;SDS011;39197;53.200;5.792;2022-12-24T01:36:35;53.38;;;27.10;;
53309;SDS011;39197;53.200;5.792;2022-12-24T01:39:01;48.22;;;26.00;;
53309;SDS011;39197;53.200;5.792;2022-12-24T01:41:28;46.10;;;25.50;;
53309;SDS011;39197;53.200;5.792;2022-12-24T01:44:25;51.67;;;26.35;;
53309;SDS011;39197;53.200;5.792;2022-12-24T01:47:01;52.05;;;26.95;;
53309;SDS011;39197;53.200;5.792;2022-12-24T01:49:27;59.42;;;31.55;;
53309;SDS011;39197;53.200;5.792;2022-12-24T01:51:55;53.95;;;27.05;;
53309;SDS011;39197;53.200;5.792;2022-12-24T01:54:31;48.55;;;26.40;;
53309;SDS011;39197;53.200;5.792;2022-12-24T01:57:10;45.58;;;24.55;;
53309;SDS011;39197;53.200;5.792;2022-12-24T01:59:44;58.50;;;33.05;;
53309;SDS011;39197;53.200;5.792;2022-12-24T02:02:15;50.17;;;27.30;;
53309;SDS011;39197;53.200;5.792;2022-12-24T02:07:22;39.22;;;24.48;;
53309;SDS011;39197;53.200;5.792;2022-12-24T02:09:48;46.17;;;25.75;;
53309;SDS011;39197;53.200;5.792;2022-12-24T02:12:17;43.70;;;26.23;;
53309;SDS011;39197;53.200;5.792;2022-12-24T02:14:43;42.20;;;25.60;;
53309;SDS011;39197;53.200;5.792;2022-12-24T02:22:40;37.53;;;21.67;;
53309;SDS011;39197;53.200;5.792;2022-12-24T02:25:22;38.25;;;24.17;;
53309;SDS011;39197;53.200;5.792;2022-12-24T02:31:01;33.13;;;23.08;;
53309;SDS011;39197;53.200;5.792;2022-12-24T02:33:34;28.27;;;18.23;;
53309;SDS011;39197;53.200;5.792;2022-12-24T02:38:48;28.92;;;18.98;;
53309;SDS011;39197;53.200;5.792;2022-12-24T02:41:23;25.42;;;18.35;;
53309;SDS011;39197;53.200;5.792;2022-12-24T02:43:51;27.17;;;16.17;;
53309;SDS011;39197;53.200;5.792;2022-12-24T02:46:23;23.38;;;12.73;;
53309;SDS011;39197;53.200;5.792;2022-12-24T02:48:52;25.98;;;16.30;;
53309;SDS011;39197;53.200;5.792;2022-12-24T02:51:22;27.45;;;13.38;;
53309;SDS011;39197;53.200;5.792;2022-12-24T02:53:49;23.90;;;13.38;;
53309;SDS011;39197;53.200;5.792;2022-12-24T03:04:56;15.02;;;6.32;;
53309;SDS011;39197;53.200;5.792;2022-12-24T03:07:43;14.98;;;6.32;;
53309;SDS011;39197;53.200;5.792;2022-12-24T03:10:41;16.20;;;5.57;;
53309;SDS011;39197;53.200;5.792;2022-12-24T03:13:16;13.40;;;5.28;;
53309;SDS011;39197;53.200;5.792;2022-12-24T03:15:44;8.88;;;5.55;;
53309;SDS011;39197;53.200;5.792;2022-12-24T03:18:11;17.77;;;6.25;;
53309;SDS011;39197;53.200;5.792;2022-12-24T03:20:43;17.55;;;6.40;;
53309;SDS011;39197;53.200;5.792;2022-12-24T03:23:11;19.30;;;6.00;;
53309;SDS011;39197;53.200;5.792;2022-12-24T03:25:38;16.77;;;6.53;;
53309;SDS011;39197;53.200;5.792;2022-12-24T03:28:06;16.35;;;7.00;;
53309;SDS011;39197;53.200;5.792;2022-12-24T03:30:37;21.60;;;5.90;;
53309;SDS011;39197;53.200;5.792;2022-12-24T03:33:07;23.60;;;7.57;;
53309;SDS011;39197;53.200;5.792;2022-12-24T03:35:33;23.10;;;6.75;;
53309;SDS011;39197;53.200;5.792;2022-12-24T03:37:59;28.23;;;9.13;;
53309;SDS011;39197;53.200;5.792;2022-12-24T03:40:24;30.70;;;7.38;;
53309;SDS011;39197;53.200;5.792;2022-12-24T03:42:50;27.38;;;6.80;;
53309;SDS011;39197;53.200;5.792;2022-12-24T03:45:16;35.60;;;9.05;;
53309;SDS011;39197;53.200;5.792;2022-12-24T03:47:41;30.63;;;8.20;;
53309;SDS011;39197;53.200;5.792;2022-12-24T03:50:07;32.53;;;7.22;;
53309;SDS011;39197;53.200;5.792;2022-12-24T03:52:33;34.95;;;8.90;;
53309;SDS011;39197;53.200;5.792;2022-12-24T03:54:58;33.47;;;8.40;;
53309;SDS011;39197;53.200;5.792;2022-12-24T03:57:24;31.58;;;7.15;;
53309;SDS011;39197;53.200;5.792;2022-12-24T03:59:50;33.95;;;6.90;;
53309;SDS011;39197;53.200;5.792;2022-12-24T04:02:15;33.75;;;6.65;;
53309;SDS011;39197;53.200;5.792;2022-12-24T04:04:41;30.20;;;5.88;;
53309;SDS011;39197;53.200;5.792;2022-12-24T04:07:07;42.58;;;5.90;;
53309;SDS011;39197;53.200;5.792;2022-12-24T04:09:32;36.13;;;5.30;;
53309;SDS011;39197;53.200;5.792;2022-12-24T04:11:58;39.05;;;6.55;;
53309;SDS011;39197;53.200;5.792;2022-12-24T04:14:24;38.42;;;4.57;;
53309;SDS011;39197;53.200;5.792;2022-12-24T04:16:49;50.67;;;6.70;;
53309;SDS011;39197;53.200;5.792;2022-12-24T04:19:15;37.70;;;5.95;;
53309;SDS011;39197;53.200;5.792;2022-12-24T04:21:40;37.45;;;6.10;;
53309;SDS011;39197;53.200;5.792;2022-12-24T04:24:06;31.42;;;4.55;;
53309;SDS011;39197;53.200;5.792;2022-12-24T04:26:32;55.63;;;9.25;;
53309;SDS011;39197;53.200;5.792;2022-12-24T04:28:57;47.33;;;6.30;;
53309;SDS011;39197;53.200;5.792;2022-12-24T04:31:23;38.65;;;3.95;;
53309;SDS011;39197;53.200;5.792;2022-12-24T04:33:49;43.42;;;5.82;;
53309;SDS011;39197;53.200;5.792;2022-12-24T04:36:16;36.78;;;5.63;;
53309;SDS011;39197;53.200;5.792;2022-12-24T04:38:43;39.15;;;6.05;;
53309;SDS011;39197;53.200;5.792;2022-12-24T04:41:14;47.97;;;5.40;;
53309;SDS011;39197;53.200;5.792;2022-12-24T04:46:11;39.97;;;5.72;;
53309;SDS011;39197;53.200;5.792;2022-12-24T04:48:39;47.08;;;5.85;;
53309;SDS011;39197;53.200;5.792;2022-12-24T04:51:05;40.63;;;5.50;;
53309;SDS011;39197;53.200;5.792;2022-12-24T04:53:32;38.97;;;5.18;;
53309;SDS011;39197;53.200;5.792;2022-12-24T04:55:58;41.13;;;5.47;;
53309;SDS011;39197;53.200;5.792;2022-12-24T04:58:24;44.80;;;6.90;;
53309;SDS011;39197;53.200;5.792;2022-12-24T05:00:49;46.35;;;6.18;;
53309;SDS011;39197;53.200;5.792;2022-12-24T05:03:15;36.05;;;4.72;;
53309;SDS011;39197;53.200;5.792;2022-12-24T05:05:41;50.47;;;6.53;;
53309;SDS011;39197;53.200;5.792;2022-12-24T05:08:06;51.63;;;6.30;;
53309;SDS011;39197;53.200;5.792;2022-12-24T05:10:32;58.60;;;7.40;;
53309;SDS011;39197;53.200;5.792;2022-12-24T05:12:58;64.05;;;7.93;;
53309;SDS011;39197;53.200;5.792;2022-12-24T05:15:23;42.45;;;5.40;;
53309;SDS011;39197;53.200;5.792;2022-12-24T05:17:49;37.05;;;4.18;;
53309;SDS011;39197;53.200;5.792;2022-12-24T05:20:15;54.22;;;5.97;;
53309;SDS011;39197;53.200;5.792;2022-12-24T05:22:40;33.13;;;5.70;;
53309;SDS011;39197;53.200;5.792;2022-12-24T05:25:26;51.03;;;5.50;;
53309;SDS011;39197;53.200;5.792;2022-12-24T05:28:14;45.78;;;4.53;;
53309;SDS011;39197;53.200;5.792;2022-12-24T05:30:40;45.92;;;8.15;;
53309;SDS011;39197;53.200;5.792;2022-12-24T05:33:05;43.25;;;5.40;;
53309;SDS011;39197;53.200;5.792;2022-12-24T05:35:31;41.10;;;5.95;;
53309;SDS011;39197;53.200;5.792;2022-12-24T05:37:57;45.50;;;5.93;;
53309;SDS011;39197;53.200;5.792;2022-12-24T05:40:23;60.70;;;8.23;;
53309;SDS011;39197;53.200;5.792;2022-12-24T05:42:48;44.00;;;5.63;;
53309;SDS011;39197;53.200;5.792;2022-12-24T05:45:14;36.95;;;5.40;;
53309;SDS011;39197;53.200;5.792;2022-12-24T05:47:40;43.65;;;5.75;;
53309;SDS011;39197;53.200;5.792;2022-12-24T05:50:06;58.72;;;6.55;;
53309;SDS011;39197;53.200;5.792;2022-12-24T05:52:32;40.20;;;4.43;;
53309;SDS011;39197;53.200;5.792;2022-12-24T05:54:57;51.88;;;6.57;;
53309;SDS011;39197;53.200;5.792;2022-12-24T05:57:23;45.15;;;5.50;;
53309;SDS011;39197;53.200;5.792;2022-12-24T05:59:49;44.17;;;5.28;;
53309;SDS011;39197;53.200;5.792;2022-12-24T06:02:14;56.65;;;6.85;;
53309;SDS011;39197;53.200;5.792;2022-12-24T06:04:40;51.80;;;7.10;;
53309;SDS011;39197;53.200;5.792;2022-12-24T06:07:05;41.00;;;6.07;;
53309;SDS011;39197;53.200;5.792;2022-12-24T06:09:31;53.60;;;6.50;;
53309;SDS011;39197;53.200;5.792;2022-12-24T06:11:57;32.50;;;4.00;;
53309;SDS011;39197;53.200;5.792;2022-12-24T06:14:22;36.38;;;3.80;;
53309;SDS011;39197;53.200;5.792;2022-12-24T06:16:48;39.17;;;4.72;;
53309;SDS011;39197;53.200;5.792;2022-12-24T06:19:13;39.15;;;4.18;;
53309;SDS011;39197;53.200;5.792;2022-12-24T06:21:39;37.13;;;4.75;;
53309;SDS011;39197;53.200;5.792;2022-12-24T06:24:05;46.90;;;6.88;;
53309;SDS011;39197;53.200;5.792;2022-12-24T06:26:30;32.58;;;5.18;;
53309;SDS011;39197;53.200;5.792;2022-12-24T06:28:56;37.35;;;4.00;;
53309;SDS011;39197;53.200;5.792;2022-12-24T06:31:22;27.67;;;4.18;;
53309;SDS011;39197;53.200;5.792;2022-12-24T06:33:48;39.63;;;5.30;;
53309;SDS011;39197;53.200;5.792;2022-12-24T06:36:15;47.63;;;5.75;;
53309;SDS011;39197;53.200;5.792;2022-12-24T06:38:42;37.30;;;5.05;;
53309;SDS011;39197;53.200;5.792;2022-12-24T06:41:08;52.17;;;6.03;;
53309;SDS011;39197;53.200;5.792;2022-12-24T06:43:34;48.53;;;4.82;;
53309;SDS011;39197;53.200;5.792;2022-12-24T06:46:00;40.40;;;5.03;;
53309;SDS011;39197;53.200;5.792;2022-12-24T06:48:26;46.33;;;6.55;;
53309;SDS011;39197;53.200;5.792;2022-12-24T06:50:52;53.50;;;6.55;;
53309;SDS011;39197;53.200;5.792;2022-12-24T06:53:18;42.28;;;4.45;;
53309;SDS011;39197;53.200;5.792;2022-12-24T06:55:44;47.70;;;6.20;;
53309;SDS011;39197;53.200;5.792;2022-12-24T06:58:09;53.78;;;5.97;;
53309;SDS011;39197;53.200;5.792;2022-12-24T07:00:35;44.08;;;5.65;;
53309;SDS011;39197;53.200;5.792;2022-12-24T07:03:01;57.45;;;6.93;;
53309;SDS011;39197;53.200;5.792;2022-12-24T07:05:27;46.85;;;6.43;;
53309;SDS011;39197;53.200;5.792;2022-12-24T07:07:53;48.95;;;6.35;;
53309;SDS011;39197;53.200;5.792;2022-12-24T07:10:19;49.78;;;6.25;;
53309;SDS011;39197;53.200;5.792;2022-12-24T07:12:45;44.55;;;4.60;;
53309;SDS011;39197;53.200;5.792;2022-12-24T07:15:11;56.50;;;7.00;;
53309;SDS011;39197;53.200;5.792;2022-12-24T07:17:37;39.72;;;5.45;;
53309;SDS011;39197;53.200;5.792;2022-12-24T07:20:04;45.17;;;4.85;;
53309;SDS011;39197;53.200;5.792;2022-12-24T07:22:30;50.58;;;7.68;;
53309;SDS011;39197;53.200;5.792;2022-12-24T07:24:56;48.92;;;6.03;;
53309;SDS011;39197;53.200;5.792;2022-12-24T07:27:22;49.33;;;6.00;;
53309;SDS011;39197;53.200;5.792;2022-12-24T07:29:47;52.30;;;4.75;;
53309;SDS011;39197;53.200;5.792;2022-12-24T07:32:13;40.78;;;4.68;;
53309;SDS011;39197;53.200;5.792;2022-12-24T07:34:38;34.38;;;4.25;;
53309;SDS011;39197;53.200;5.792;2022-12-24T07:37:04;45.00;;;5.32;;
53309;SDS011;39197;53.200;5.792;2022-12-24T07:39:31;34.63;;;4.65;;
53309;SDS011;39197;53.200;5.792;2022-12-24T07:41:56;45.88;;;5.03;;
53309;SDS011;39197;53.200;5.792;2022-12-24T07:44:22;51.63;;;6.30;;
53309;SDS011;39197;53.200;5.792;2022-12-24T07:46:48;46.92;;;6.60;;
53309;SDS011;39197;53.200;5.792;2022-12-24T07:49:14;40.25;;;5.80;;
53309;SDS011;39197;53.200;5.792;2022-12-24T07:51:40;54.42;;;6.35;;
53309;SDS011;39197;53.200;5.792;2022-12-24T07:54:05;45.00;;;5.72;;
53309;SDS011;39197;53.200;5.792;2022-12-24T07:56:31;49.65;;;5.40;;
53309;SDS011;39197;53.200;5.792;2022-12-24T07:58:57;34.53;;;5.13;;
53309;SDS011;39197;53.200;5.792;2022-12-24T08:01:22;41.53;;;5.93;;
53309;SDS011;39197;53.200;5.792;2022-12-24T08:03:48;50.72;;;8.27;;
53309;SDS011;39197;53.200;5.792;2022-12-24T08:06:19;43.00;;;6.43;;
53309;SDS011;39197;53.200;5.792;2022-12-24T08:08:45;51.17;;;6.30;;
53309;SDS011;39197;53.200;5.792;2022-12-24T08:11:10;48.45;;;6.60;;
53309;SDS011;39197;53.200;5.792;2022-12-24T08:13:36;55.30;;;6.43;;
53309;SDS011;39197;53.200;5.792;2022-12-24T08:16:02;52.08;;;7.68;;
53309;SDS011;39197;53.200;5.792;2022-12-24T08:18:28;54.13;;;6.78;;
53309;SDS011;39197;53.200;5.792;2022-12-24T08:20:54;34.58;;;5.72;;
53309;SDS011;39197;53.200;5.792;2022-12-24T08:23:20;40.40;;;4.78;;
53309;SDS011;39197;53.200;5.792;2022-12-24T08:25:47;38.80;;;5.20;;
53309;SDS011;39197;53.200;5.792;2022-12-24T08:28:14;34.78;;;5.35;;
53309;SDS011;39197;53.200;5.792;2022-12-24T08:30:43;42.25;;;5.05;;
53309;SDS011;39197;53.200;5.792;2022-12-24T08:33:08;50.75;;;6.05;;
53309;SDS011;39197;53.200;5.792;2022-12-24T08:35:34;38.72;;;5.53;;
53309;SDS011;39197;53.200;5.792;2022-12-24T08:38:00;36.30;;;4.40;;
53309;SDS011;39197;53.200;5.792;2022-12-24T08:40:26;35.50;;;3.92;;
53309;SDS011;39197;53.200;5.792;2022-12-24T08:42:51;42.75;;;5.63;;
53309;SDS011;39197;53.200;5.792;2022-12-24T08:45:17;33.88;;;4.47;;
53309;SDS011;39197;53.200;5.792;2022-12-24T08:47:43;42.63;;;5.90;;
53309;SDS011;39197;53.200;5.792;2022-12-24T08:50:09;48.78;;;6.65;;
53309;SDS011;39197;53.200;5.792;2022-12-24T08:52:35;50.15;;;6.40;;
53309;SDS011;39197;53.200;5.792;2022-12-24T08:55:01;43.75;;;5.75;;
53309;SDS011;39197;53.200;5.792;2022-12-24T08:57:27;37.05;;;5.18;;
53309;SDS011;39197;53.200;5.792;2022-12-24T08:59:53;27.83;;;3.60;;
53309;SDS011;39197;53.200;5.792;2022-12-24T09:02:19;40.40;;;4.78;;
53309;SDS011;39197;53.200;5.792;2022-12-24T09:04:45;36.08;;;6.38;;
53309;SDS011;39197;53.200;5.792;2022-12-24T09:07:10;24.20;;;3.50;;
53309;SDS011;39197;53.200;5.792;2022-12-24T09:09:36;39.97;;;6.45;;
53309;SDS011;39197;53.200;5.792;2022-12-24T09:12:05;36.53;;;5.28;;
53309;SDS011;39197;53.200;5.792;2022-12-24T09:14:31;36.45;;;4.65;;
53309;SDS011;39197;53.200;5.792;2022-12-24T09:16:57;42.00;;;5.18;;
53309;SDS011;39197;53.200;5.792;2022-12-24T09:19:23;37.28;;;4.93;;
53309;SDS011;39197;53.200;5.792;2022-12-24T09:21:49;32.80;;;4.05;;
53309;SDS011;39197;53.200;5.792;2022-12-24T09:24:15;34.40;;;4.85;;
53309;SDS011;39197;53.200;5.792;2022-12-24T09:26:40;47.70;;;5.43;;
53309;SDS011;39197;53.200;5.792;2022-12-24T09:29:06;28.63;;;3.72;;
53309;SDS011;39197;53.200;5.792;2022-12-24T09:31:34;24.65;;;3.08;;
53309;SDS011;39197;53.200;5.792;2022-12-24T09:33:59;39.90;;;4.65;;
53309;SDS011;39197;53.200;5.792;2022-12-24T09:36:26;42.92;;;6.03;;
53309;SDS011;39197;53.200;5.792;2022-12-24T09:38:51;35.75;;;5.07;;
53309;SDS011;39197;53.200;5.792;2022-12-24T09:44:14;39.72;;;5.47;;
53309;SDS011;39197;53.200;5.792;2022-12-24T09:47:04;35.88;;;5.55;;
53309;SDS011;39197;53.200;5.792;2022-12-24T09:49:42;39.97;;;4.82;;
53309;SDS011;39197;53.200;5.792;2022-12-24T09:52:11;36.80;;;4.72;;
53309;SDS011;39197;53.200;5.792;2022-12-24T09:54:45;41.97;;;6.53;;
53309;SDS011;39197;53.200;5.792;2022-12-24T09:57:29;43.50;;;5.45;;
53309;SDS011;39197;53.200;5.792;2022-12-24T09:59:59;36.70;;;5.05;;
53309;SDS011;39197;53.200;5.792;2022-12-24T10:02:25;35.20;;;4.95;;
53309;SDS011;39197;53.200;5.792;2022-12-24T10:04:51;30.20;;;4.03;;
53309;SDS011;39197;53.200;5.792;2022-12-24T10:07:27;30.77;;;3.83;;
53309;SDS011;39197;53.200;5.792;2022-12-24T10:15:53;38.72;;;6.13;;
53309;SDS011;39197;53.200;5.792;2022-12-24T10:19:20;39.92;;;6.05;;
53309;SDS011;39197;53.200;5.792;2022-12-24T10:24:24;43.13;;;6.03;;
53309;SDS011;39197;53.200;5.792;2022-12-24T10:27:11;32.45;;;4.40;;
53309;SDS011;39197;53.200;5.792;2022-12-24T10:29:46;39.30;;;5.30;;
53309;SDS011;39197;53.200;5.792;2022-12-24T10:32:20;27.10;;;4.00;;
53309;SDS011;39197;53.200;5.792;2022-12-24T10:35:22;32.58;;;4.72;;
53309;SDS011;39197;53.200;5.792;2022-12-24T10:37:39;31.88;;;5.03;;
53309;SDS011;39197;53.200;5.792;2022-12-24T10:40:10;27.30;;;3.17;;
53309;SDS011;39197;53.200;5.792;2022-12-24T10:42:42;28.02;;;4.57;;
53309;SDS011;39197;53.200;5.792;2022-12-24T10:45:09;31.02;;;4.93;;
53309;SDS011;39197;53.200;5.792;2022-12-24T10:47:40;30.13;;;4.75;;
53309;SDS011;39197;53.200;5.792;2022-12-24T10:50:18;29.58;;;4.60;;
53309;SDS011;39197;53.200;5.792;2022-12-24T10:52:54;30.75;;;3.45;;
53309;SDS011;39197;53.200;5.792;2022-12-24T10:55:43;25.48;;;3.33;;
53309;SDS011;39197;53.200;5.792;2022-12-24T10:58:15;21.20;;;3.13;;
53309;SDS011;39197;53.200;5.792;2022-12-24T11:00:50;26.25;;;3.17;;
53309;SDS011;39197;53.200;5.792;2022-12-24T11:05:42;37.97;;;5.93;;
53309;SDS011;39197;53.200;5.792;2022-12-24T11:10:39;25.05;;;3.08;;
53309;SDS011;39197;53.200;5.792;2022-12-24T11:13:21;25.38;;;3.20;;
53309;SDS011;39197;53.200;5.792;2022-12-24T11:15:58;26.70;;;3.67;;
53309;SDS011;39197;53.200;5.792;2022-12-24T11:18:26;22.45;;;3.17;;
53309;SDS011;39197;53.200;5.792;2022-12-24T11:20:53;26.08;;;3.50;;
53309;SDS011;39197;53.200;5.792;2022-12-24T11:23:19;22.90;;;3.42;;
53309;SDS011;39197;53.200;5.792;2022-12-24T11:25:46;20.67;;;3.45;;
53309;SDS011;39197;53.200;5.792;2022-12-24T11:28:21;18.10;;;3.72;;
53309;SDS011;39197;53.200;5.792;2022-12-24T11:30:56;28.65;;;4.00;;
53309;SDS011;39197;53.200;5.792;2022-12-24T11:33:28;17.30;;;2.22;;
53309;SDS011;39197;53.200;5.792;2022-12-24T11:36:05;25.23;;;3.13;;
53309;SDS011;39197;53.200;5.792;2022-12-24T11:38:35;27.38;;;3.50;;
53309;SDS011;39197;53.200;5.792;2022-12-24T11:41:05;20.48;;;2.75;;
53309;SDS011;39197;53.200;5.792;2022-12-24T11:43:41;26.02;;;2.95;;
53309;SDS011;39197;53.200;5.792;2022-12-24T11:46:19;21.08;;;2.78;;
53309;SDS011;39197;53.200;5.792;2022-12-24T11:49:13;24.50;;;3.55;;
53309;SDS011;39197;53.200;5.792;2022-12-24T11:51:59;17.38;;;2.63;;
53309;SDS011;39197;53.200;5.792;2022-12-24T11:57:10;19.67;;;3.90;;
53309;SDS011;39197;53.200;5.792;2022-12-24T11:59:41;23.77;;;3.15;;
53309;SDS011;39197;53.200;5.792;2022-12-24T12:05:16;28.52;;;3.47;;
53309;SDS011;39197;53.200;5.792;2022-12-24T12:07:45;19.30;;;2.85;;
53309;SDS011;39197;53.200;5.792;2022-12-24T12:12:46;26.85;;;3.70;;
53309;SDS011;39197;53.200;5.792;2022-12-24T12:15:33;19.90;;;2.08;;
53309;SDS011;39197;53.200;5.792;2022-12-24T12:18:11;19.35;;;3.05;;
53309;SDS011;39197;53.200;5.792;2022-12-24T12:20:41;22.23;;;2.97;;
53309;SDS011;39197;53.200;5.792;2022-12-24T12:23:27;16.52;;;2.15;;
53309;SDS011;39197;53.200;5.792;2022-12-24T12:25:59;18.65;;;2.33;;
53309;SDS011;39197;53.200;5.792;2022-12-24T12:36:13;24.17;;;3.80;;
53309;SDS011;39197;53.200;5.792;2022-12-24T12:38:42;15.90;;;2.33;;
53309;SDS011;39197;53.200;5.792;2022-12-24T12:41:11;23.65;;;2.70;;
53309;SDS011;39197;53.200;5.792;2022-12-24T12:44:23;25.33;;;3.45;;
53309;SDS011;39197;53.200;5.792;2022-12-24T12:57:45;21.02;;;2.67;;
53309;SDS011;39197;53.200;5.792;2022-12-24T13:00:14;23.33;;;2.97;;
53309;SDS011;39197;53.200;5.792;2022-12-24T13:21:23;15.43;;;2.80;;
53309;SDS011;39197;53.200;5.792;2022-12-24T13:23:50;19.50;;;3.20;;
53309;SDS011;39197;53.200;5.792;2022-12-24T13:35:00;20.98;;;2.88;;
53309;SDS011;39197;53.200;5.792;2022-12-24T13:37:47;22.67;;;3.42;;
53309;SDS011;39197;53.200;5.792;2022-12-24T13:40:22;20.15;;;2.38;;
53309;SDS011;39197;53.200;5.792;2022-12-24T13:47:56;22.98;;;2.65;;
53309;SDS011;39197;53.200;5.792;2022-12-24T13:50:48;21.88;;;2.80;;
53309;SDS011;39197;53.200;5.792;2022-12-24T13:58:42;20.35;;;2.83;;
53309;SDS011;39197;53.200;5.792;2022-12-24T14:01:15;23.95;;;3.63;;
53309;SDS011;39197;53.200;5.792;2022-12-24T14:03:48;19.92;;;4.20;;
53309;SDS011;39197;53.200;5.792;2022-12-24T14:08:45;23.95;;;4.03;;
53309;SDS011;39197;53.200;5.792;2022-12-24T14:11:17;19.67;;;2.58;;
53309;SDS011;39197;53.200;5.792;2022-12-24T14:13:49;21.98;;;2.90;;
53309;SDS011;39197;53.200;5.792;2022-12-24T14:16:17;26.52;;;3.55;;
53309;SDS011;39197;53.200;5.792;2022-12-24T14:21:35;21.20;;;2.25;;
53309;SDS011;39197;53.200;5.792;2022-12-24T14:24:18;27.85;;;3.85;;
53309;SDS011;39197;53.200;5.792;2022-12-24T14:26:51;15.77;;;2.47;;
53309;SDS011;39197;53.200;5.792;2022-12-24T14:29:26;18.02;;;2.20;;
53309;SDS011;39197;53.200;5.792;2022-12-24T14:31:56;26.13;;;4.65;;
53309;SDS011;39197;53.200;5.792;2022-12-24T14:34:24;21.85;;;2.45;;
53309;SDS011;39197;53.200;5.792;2022-12-24T14:36:51;29.23;;;4.03;;
53309;SDS011;39197;53.200;5.792;2022-12-24T14:39:29;23.70;;;3.90;;
53309;SDS011;39197;53.200;5.792;2022-12-24T14:50:44;25.63;;;3.03;;
53309;SDS011;39197;53.200;5.792;2022-12-24T14:56:14;19.70;;;2.60;;
53309;SDS011;39197;53.200;5.792;2022-12-24T14:58:42;37.40;;;4.32;;
53309;SDS011;39197;53.200;5.792;2022-12-24T15:04:04;27.52;;;3.38;;
53309;SDS011;39197;53.200;5.792;2022-12-24T15:06:47;15.68;;;2.13;;
53309;SDS011;39197;53.200;5.792;2022-12-24T15:11:54;21.10;;;2.95;;
53309;SDS011;39197;53.200;5.792;2022-12-24T15:14:23;31.90;;;6.47;;
53309;SDS011;39197;53.200;5.792;2022-12-24T15:17:01;34.88;;;7.93;;
53309;SDS011;39197;53.200;5.792;2022-12-24T15:19:30;23.30;;;4.35;;
53309;SDS011;39197;53.200;5.792;2022-12-24T15:22:00;27.95;;;4.82;;
53309;SDS011;39197;53.200;5.792;2022-12-24T15:24:32;30.02;;;4.65;;
53309;SDS011;39197;53.200;5.792;2022-12-24T15:26:59;24.40;;;5.28;;
53309;SDS011;39197;53.200;5.792;2022-12-24T15:29:28;23.17;;;3.15;;
53309;SDS011;39197;53.200;5.792;2022-12-24T15:31:59;28.67;;;4.18;;
53309;SDS011;39197;53.200;5.792;2022-12-24T15:34:36;30.50;;;4.78;;
53309;SDS011;39197;53.200;5.792;2022-12-24T15:37:04;29.33;;;5.57;;
53309;SDS011;39197;53.200;5.792;2022-12-24T15:39:34;25.45;;;3.58;;
53309;SDS011;39197;53.200;5.792;2022-12-24T15:42:00;30.95;;;6.25;;
53309;SDS011;39197;53.200;5.792;2022-12-24T15:44:39;32.30;;;4.80;;
53309;SDS011;39197;53.200;5.792;2022-12-24T15:47:12;30.67;;;3.95;;
53309;SDS011;39197;53.200;5.792;2022-12-24T15:49:42;31.50;;;7.22;;
53309;SDS011;39197;53.200;5.792;2022-12-24T15:52:15;31.88;;;6.07;;
53309;SDS011;39197;53.200;5.792;2022-12-24T15:54:44;28.80;;;4.85;;
53309;SDS011;39197;53.200;5.792;2022-12-24T15:57:12;24.27;;;3.22;;
53309;SDS011;39197;53.200;5.792;2022-12-24T15:59:57;33.13;;;5.53;;
53309;SDS011;39197;53.200;5.792;2022-12-24T16:02:35;33.45;;;6.13;;
53309;SDS011;39197;53.200;5.792;2022-12-24T16:08:20;27.75;;;4.90;;
53309;SDS011;39197;53.200;5.792;2022-12-24T16:10:51;32.70;;;5.85;;
53309;SDS011;39197;53.200;5.792;2022-12-24T16:13:32;32.17;;;4.43;;
53309;SDS011;39197;53.200;5.792;2022-12-24T16:16:02;26.90;;;4.50;;
53309;SDS011;39197;53.200;5.792;2022-12-24T16:18:32;30.95;;;7.07;;
53309;SDS011;39197;53.200;5.792;2022-12-24T16:23:38;39.70;;;6.05;;
53309;SDS011;39197;53.200;5.792;2022-12-24T16:26:10;32.28;;;5.88;;
53309;SDS011;39197;53.200;5.792;2022-12-24T16:28:36;27.52;;;3.95;;
53309;SDS011;39197;53.200;5.792;2022-12-24T16:31:02;32.42;;;4.93;;
53309;SDS011;39197;53.200;5.792;2022-12-24T16:33:27;28.02;;;4.97;;
53309;SDS011;39197;53.200;5.792;2022-12-24T16:35:53;31.20;;;4.55;;
53309;SDS011;39197;53.200;5.792;2022-12-24T16:38:20;25.58;;;4.20;;
53309;SDS011;39197;53.200;5.792;2022-12-24T16:40:46;27.13;;;4.50;;
53309;SDS011;39197;53.200;5.792;2022-12-24T16:43:11;32.17;;;5.10;;
53309;SDS011;39197;53.200;5.792;2022-12-24T16:45:59;29.52;;;4.72;;
53309;SDS011;39197;53.200;5.792;2022-12-24T16:48:28;25.60;;;3.80;;
53309;SDS011;39197;53.200;5.792;2022-12-24T16:50:54;22.40;;;4.50;;
53309;SDS011;39197;53.200;5.792;2022-12-24T16:53:21;26.52;;;3.58;;
53309;SDS011;39197;53.200;5.792;2022-12-24T16:55:47;22.67;;;3.38;;
53309;SDS011;39197;53.200;5.792;2022-12-24T16:58:15;18.70;;;3.33;;
53309;SDS011;39197;53.200;5.792;2022-12-24T17:00:42;32.00;;;4.32;;